sensor_id;sensor_type;location;lat;lon;timestamp;temperature;humidity
17968;DHT22;9109;48.050;11.696;2022-11-12T04:45:49;4.10;99.90
17968;DHT22;9109;48.050;11.696;2022-11-12T04:48:52;4.10;99.90
17968;DHT22;9109;48.050;11.696;2022-11-12T04:51:53;4.00;99.90
17968;DHT22;9109;48.050;11.696;2022-11-12T04:55:08;4.00;99.90
17968;DHT22;9109;48.050;11.696;2022-11-12T04:58:10;3.90;99.90
17968;DHT22;9109;48.050;11.696;2022-11-12T05:01:14;3.90;99.90
17968;DHT22;9109;48.050;11.696;2022-11-12T05:04:16;3.90;99.90
17968;DHT22;9109;48.050;11.696;2022-11-12T05:07:18;3.90;99.90
17968;DHT22;9109;48.050;11.696;2022-11-12T05:10:19;3.90;99.90
17968;DHT22;9109;48.050;11.696;2022-11-12T05:13:21;3.90;99.90
17968;DHT22;9109;48.050;11.696;2022-11-12T05:16:24;4.00;99.90
17968;DHT22;9109;48.050;11.696;2022-11-12T05:19:26;4.10;99.90
17968;DHT22;9109;48.050;11.696;2022-11-12T05:22:28;4.00;99.90
17968;DHT22;9109;48.050;11.696;2022-11-12T05:25:30;4.10;99.90
17968;DHT22;9109;48.050;11.696;2022-11-12T05:28:32;4.10;99.90
17968;DHT22;9109;48.050;11.696;2022-11-12T05:35:33;4.00;99.90
17968;DHT22;9109;48.050;11.696;2022-11-12T05:38:35;4.10;99.90
17968;DHT22;9109;48.050;11.696;2022-11-12T05:41:40;4.10;99.90
17968;DHT22;9109;48.050;11.696;2022-11-12T05:44:49;4.10;99.90
17968;DHT22;9109;48.050;11.696;2022-11-12T05:47:55;4.10;99.90
17968;DHT22;9109;48.050;11.696;2022-11-12T05:51:14;4.20;99.90
17968;DHT22;9109;48.050;11.696;2022-11-12T05:54:17;4.10;99.90
17968;DHT22;9109;48.050;11.696;2022-11-12T05:57:26;4.10;99.90
17968;DHT22;9109;48.050;11.696;2022-11-12T06:00:42;3.90;99.90
17968;DHT22;9109;48.050;11.696;2022-11-12T06:03:52;3.90;99.90
17968;DHT22;9109;48.050;11.696;2022-11-12T06:07:01;3.90;99.90
17968;DHT22;9109;48.050;11.696;2022-11-12T06:10:19;3.90;99.90
17968;DHT22;9109;48.050;11.696;2022-11-12T06:13:29;4.00;99.90
17968;DHT22;9109;48.050;11.696;2022-11-12T06:16:33;4.00;99.90
17968;DHT22;9109;48.050;11.696;2022-11-12T06:19:37;4.00;99.90
17968;DHT22;9109;48.050;11.696;2022-11-12T06:22:55;4.00;99.90
17968;DHT22;9109;48.050;11.696;2022-11-12T06:26:05;4.00;99.90
17968;DHT22;9109;48.050;11.696;2022-11-12T06:29:12;3.90;99.90
17968;DHT22;9109;48.050;11.696;2022-11-12T06:32:19;3.90;99.90
17968;DHT22;9109;48.050;11.696;2022-11-12T06:35:30;3.90;99.90
17968;DHT22;9109;48.050;11.696;2022-11-12T06:38:38;3.90;99.90
17968;DHT22;9109;48.050;11.696;2022-11-12T06:45:10;3.90;99.90
17968;DHT22;9109;48.050;11.696;2022-11-12T06:48:23;3.90;99.90
17968;DHT22;9109;48.050;11.696;2022-11-12T06:51:40;3.90;99.90
17968;DHT22;9109;48.050;11.696;2022-11-12T06:54:52;3.90;99.90
17968;DHT22;9109;48.050;11.696;2022-11-12T06:58:00;4.00;99.90
17968;DHT22;9109;48.050;11.696;2022-11-12T07:01:10;3.90;99.90
17968;DHT22;9109;48.050;11.696;2022-11-12T07:04:25;3.90;99.90
17968;DHT22;9109;48.050;11.696;2022-11-12T07:07:33;3.90;99.90
17968;DHT22;9109;48.050;11.696;2022-11-12T07:11:01;3.90;99.90
17968;DHT22;9109;48.050;11.696;2022-11-12T07:14:13;4.10;99.90
17968;DHT22;9109;48.050;11.696;2022-11-12T07:17:27;4.00;99.90
17968;DHT22;9109;48.050;11.696;2022-11-12T07:20:30;4.00;99.90
17968;DHT22;9109;48.050;11.696;2022-11-12T07:23:56;4.20;99.90
17968;DHT22;9109;48.050;11.696;2022-11-12T07:27:02;4.20;99.90
17968;DHT22;9109;48.050;11.696;2022-11-12T07:30:32;4.20;99.90
17968;DHT22;9109;48.050;11.696;2022-11-12T07:33:51;4.30;99.90
17968;DHT22;9109;48.050;11.696;2022-11-12T07:37:02;4.40;99.90
17968;DHT22;9109;48.050;11.696;2022-11-12T07:40:18;4.40;99.90
17968;DHT22;9109;48.050;11.696;2022-11-12T07:43:36;4.50;99.90
17968;DHT22;9109;48.050;11.696;2022-11-12T07:47:08;4.40;99.90
17968;DHT22;9109;48.050;11.696;2022-11-12T07:50:32;4.20;99.90
17968;DHT22;9109;48.050;11.696;2022-11-12T07:53:55;4.00;99.90
17968;DHT22;9109;48.050;11.696;2022-11-12T07:57:10;4.10;99.90
17968;DHT22;9109;48.050;11.696;2022-11-12T08:00:20;3.80;99.90
17968;DHT22;9109;48.050;11.696;2022-11-12T08:03:30;3.90;99.90
17968;DHT22;9109;48.050;11.696;2022-11-12T08:06:38;3.90;99.90
17968;DHT22;9109;48.050;11.696;2022-11-12T08:09:42;4.20;99.90
17968;DHT22;9109;48.050;11.696;2022-11-12T08:12:44;4.30;99.90
17968;DHT22;9109;48.050;11.696;2022-11-12T08:15:50;4.50;99.90
17968;DHT22;9109;48.050;11.696;2022-11-12T08:19:04;4.50;99.90
17968;DHT22;9109;48.050;11.696;2022-11-12T08:22:06;4.60;99.90
17968;DHT22;9109;48.050;11.696;2022-11-12T08:25:08;4.70;99.90
17968;DHT22;9109;48.050;11.696;2022-11-12T08:28:10;4.70;99.90
17968;DHT22;9109;48.050;11.696;2022-11-12T08:31:15;4.70;99.90
17968;DHT22;9109;48.050;11.696;2022-11-12T08:34:18;4.80;99.90
17968;DHT22;9109;48.050;11.696;2022-11-12T08:37:21;4.80;99.90
17968;DHT22;9109;48.050;11.696;2022-11-12T08:40:39;4.80;99.90
17968;DHT22;9109;48.050;11.696;2022-11-12T08:44:01;4.90;99.90
17968;DHT22;9109;48.050;11.696;2022-11-12T08:47:36;4.90;99.90
17968;DHT22;9109;48.050;11.696;2022-11-12T08:51:01;4.90;99.90
17968;DHT22;9109;48.050;11.696;2022-11-12T08:54:41;4.90;99.90
17968;DHT22;9109;48.050;11.696;2022-11-12T08:57:52;5.00;99.90
17968;DHT22;9109;48.050;11.696;2022-11-12T09:01:11;5.00;99.90
17968;DHT22;9109;48.050;11.696;2022-11-12T09:04:51;5.20;99.90
17968;DHT22;9109;48.050;11.696;2022-11-12T09:08:37;5.30;99.90
17968;DHT22;9109;48.050;11.696;2022-11-12T09:11:53;5.20;99.90
17968;DHT22;9109;48.050;11.696;2022-11-12T09:15:02;5.20;99.90
17968;DHT22;9109;48.050;11.696;2022-11-12T09:18:43;5.30;99.90
17968;DHT22;9109;48.050;11.696;2022-11-12T09:22:11;5.40;99.90
17968;DHT22;9109;48.050;11.696;2022-11-12T09:25:37;5.50;99.90
17968;DHT22;9109;48.050;11.696;2022-11-12T09:29:19;5.70;99.90
17968;DHT22;9109;48.050;11.696;2022-11-12T09:33:08;5.70;99.90
17968;DHT22;9109;48.050;11.696;2022-11-12T09:36:36;5.80;99.90
17968;DHT22;9109;48.050;11.696;2022-11-12T09:47:53;5.90;99.90
17968;DHT22;9109;48.050;11.696;2022-11-12T09:51:20;6.00;99.90
17968;DHT22;9109;48.050;11.696;2022-11-12T09:58:15;6.10;99.90
17968;DHT22;9109;48.050;11.696;2022-11-12T10:05:39;6.30;99.90
17968;DHT22;9109;48.050;11.696;2022-11-12T10:09:03;6.10;99.90
17968;DHT22;9109;48.050;11.696;2022-11-12T10:12:44;6.10;99.90
17968;DHT22;9109;48.050;11.696;2022-11-12T10:16:26;6.20;99.90
17968;DHT22;9109;48.050;11.696;2022-11-12T10:21:03;6.30;99.90
17968;DHT22;9109;48.050;11.696;2022-11-12T10:23:47;6.40;99.90
17968;DHT22;9109;48.050;11.696;2022-11-12T10:27:19;6.30;99.90
17968;DHT22;9109;48.050;11.696;2022-11-12T10:30:31;6.40;99.90
17968;DHT22;9109;48.050;11.696;2022-11-12T10:33:43;6.50;99.90
17968;DHT22;9109;48.050;11.696;2022-11-12T10:37:05;6.50;99.90
17968;DHT22;9109;48.050;11.696;2022-11-12T10:44:19;6.90;99.90
17968;DHT22;9109;48.050;11.696;2022-11-12T10:48:02;7.10;99.90
17968;DHT22;9109;48.050;11.696;2022-11-12T10:51:25;7.20;99.90
17968;DHT22;9109;48.050;11.696;2022-11-12T10:55:06;7.20;99.90
17968;DHT22;9109;48.050;11.696;2022-11-12T11:02:41;7.60;99.90
17968;DHT22;9109;48.050;11.696;2022-11-12T11:06:17;7.70;99.90
17968;DHT22;9109;48.050;11.696;2022-11-12T11:13:37;7.60;99.90
17968;DHT22;9109;48.050;11.696;2022-11-12T11:17:23;8.00;99.90
17968;DHT22;9109;48.050;11.696;2022-11-12T11:21:00;8.00;99.90
17968;DHT22;9109;48.050;11.696;2022-11-12T11:24:31;8.10;99.90
17968;DHT22;9109;48.050;11.696;2022-11-12T11:27:43;8.20;99.90
17968;DHT22;9109;48.050;11.696;2022-11-12T11:31:05;8.20;99.90
17968;DHT22;9109;48.050;11.696;2022-11-12T11:34:52;8.40;99.90
17968;DHT22;9109;48.050;11.696;2022-11-12T11:42:14;8.70;99.90
17968;DHT22;9109;48.050;11.696;2022-11-12T11:57:40;8.80;99.90
17968;DHT22;9109;48.050;11.696;2022-11-12T12:00:48;8.80;99.90
17968;DHT22;9109;48.050;11.696;2022-11-12T12:04:12;8.70;99.90
17968;DHT22;9109;48.050;11.696;2022-11-12T12:07:24;8.70;99.90
17968;DHT22;9109;48.050;11.696;2022-11-12T12:10:40;8.80;99.90
17968;DHT22;9109;48.050;11.696;2022-11-12T12:13:59;9.00;99.90
17968;DHT22;9109;48.050;11.696;2022-11-12T12:17:13;9.10;99.90
17968;DHT22;9109;48.050;11.696;2022-11-12T12:20:20;9.20;99.90
17968;DHT22;9109;48.050;11.696;2022-11-12T12:23:26;9.20;99.90
17968;DHT22;9109;48.050;11.696;2022-11-12T12:26:35;9.20;99.90
17968;DHT22;9109;48.050;11.696;2022-11-12T12:29:43;9.20;99.90
17968;DHT22;9109;48.050;11.696;2022-11-12T12:32:52;9.30;99.90
17968;DHT22;9109;48.050;11.696;2022-11-12T12:35:58;9.30;99.90
17968;DHT22;9109;48.050;11.696;2022-11-12T12:39:08;9.30;99.90
17968;DHT22;9109;48.050;11.696;2022-11-12T12:42:18;9.40;99.90
17968;DHT22;9109;48.050;11.696;2022-11-12T12:45:40;9.50;99.90
17968;DHT22;9109;48.050;11.696;2022-11-12T12:48:44;9.60;99.90
17968;DHT22;9109;48.050;11.696;2022-11-12T12:51:47;9.60;99.90
17968;DHT22;9109;48.050;11.696;2022-11-12T12:54:56;9.50;99.90
17968;DHT22;9109;48.050;11.696;2022-11-12T12:58:00;9.60;99.90
17968;DHT22;9109;48.050;11.696;2022-11-12T13:01:04;9.80;99.90
17968;DHT22;9109;48.050;11.696;2022-11-12T13:04:09;9.60;99.90
17968;DHT22;9109;48.050;11.696;2022-11-12T13:07:11;9.60;99.90
17968;DHT22;9109;48.050;11.696;2022-11-12T13:17:51;9.30;99.90
17968;DHT22;9109;48.050;11.696;2022-11-12T13:21:09;9.40;99.90
17968;DHT22;9109;48.050;11.696;2022-11-12T13:24:13;9.40;99.90
17968;DHT22;9109;48.050;11.696;2022-11-12T13:31:01;9.30;99.90
17968;DHT22;9109;48.050;11.696;2022-11-12T13:34:12;9.20;99.90
17968;DHT22;9109;48.050;11.696;2022-11-12T13:37:18;9.10;99.90
17968;DHT22;9109;48.050;11.696;2022-11-12T13:40:32;9.10;99.90
17968;DHT22;9109;48.050;11.696;2022-11-12T13:43:39;9.10;99.90
17968;DHT22;9109;48.050;11.696;2022-11-12T13:46:44;9.20;99.90
17968;DHT22;9109;48.050;11.696;2022-11-12T13:49:47;9.30;99.90
17968;DHT22;9109;48.050;11.696;2022-11-12T13:52:49;9.30;99.90
17968;DHT22;9109;48.050;11.696;2022-11-12T13:55:53;9.30;99.90
17968;DHT22;9109;48.050;11.696;2022-11-12T13:59:07;9.40;99.90
17968;DHT22;9109;48.050;11.696;2022-11-12T14:02:20;9.30;99.90
17968;DHT22;9109;48.050;11.696;2022-11-12T14:05:25;9.10;99.90
17968;DHT22;9109;48.050;11.696;2022-11-12T14:08:54;9.00;99.90
17968;DHT22;9109;48.050;11.696;2022-11-12T14:12:22;9.00;99.90
17968;DHT22;9109;48.050;11.696;2022-11-12T14:15:37;9.00;99.90
17968;DHT22;9109;48.050;11.696;2022-11-12T14:18:58;8.90;99.90
17968;DHT22;9109;48.050;11.696;2022-11-12T14:22:12;8.80;99.90
17968;DHT22;9109;48.050;11.696;2022-11-12T14:25:17;8.80;99.90
17968;DHT22;9109;48.050;11.696;2022-11-12T14:28:28;8.80;99.90
17968;DHT22;9109;48.050;11.696;2022-11-12T14:31:30;8.80;99.90
17968;DHT22;9109;48.050;11.696;2022-11-12T14:34:33;8.80;99.90
17968;DHT22;9109;48.050;11.696;2022-11-12T14:37:36;8.70;99.90
17968;DHT22;9109;48.050;11.696;2022-11-12T14:40:43;8.70;99.90
17968;DHT22;9109;48.050;11.696;2022-11-12T14:43:47;8.60;99.90
17968;DHT22;9109;48.050;11.696;2022-11-12T14:46:50;8.40;99.90
17968;DHT22;9109;48.050;11.696;2022-11-12T14:49:55;8.40;99.90
17968;DHT22;9109;48.050;11.696;2022-11-12T14:52:59;8.40;99.90
17968;DHT22;9109;48.050;11.696;2022-11-12T14:56:05;8.40;99.90
17968;DHT22;9109;48.050;11.696;2022-11-12T14:59:09;8.50;99.90
17968;DHT22;9109;48.050;11.696;2022-11-12T15:02:15;8.40;99.90
17968;DHT22;9109;48.050;11.696;2022-11-12T15:05:21;8.30;99.90
17968;DHT22;9109;48.050;11.696;2022-11-12T15:08:31;8.40;99.90
17968;DHT22;9109;48.050;11.696;2022-11-12T15:11:36;8.30;99.90
17968;DHT22;9109;48.050;11.696;2022-11-12T15:14:43;8.30;99.90
17968;DHT22;9109;48.050;11.696;2022-11-12T15:17:45;8.30;99.90
17968;DHT22;9109;48.050;11.696;2022-11-12T15:21:05;8.30;99.90
17968;DHT22;9109;48.050;11.696;2022-11-12T15:24:17;8.40;99.90
17968;DHT22;9109;48.050;11.696;2022-11-12T15:27:37;8.40;99.90
17968;DHT22;9109;48.050;11.696;2022-11-12T15:30:39;8.40;99.90
17968;DHT22;9109;48.050;11.696;2022-11-12T15:33:42;8.30;99.90
17968;DHT22;9109;48.050;11.696;2022-11-12T15:36:45;8.10;99.90
17968;DHT22;9109;48.050;11.696;2022-11-12T15:39:49;8.00;99.90
17968;DHT22;9109;48.050;11.696;2022-11-12T15:42:51;7.90;99.90
17968;DHT22;9109;48.050;11.696;2022-11-12T15:45:54;7.80;99.90
17968;DHT22;9109;48.050;11.696;2022-11-12T15:48:56;7.60;99.90
17968;DHT22;9109;48.050;11.696;2022-11-12T15:52:00;7.70;99.90
17968;DHT22;9109;48.050;11.696;2022-11-12T15:55:02;7.80;99.90
17968;DHT22;9109;48.050;11.696;2022-11-12T15:58:05;7.80;99.90
17968;DHT22;9109;48.050;11.696;2022-11-12T16:01:10;7.70;99.90
17968;DHT22;9109;48.050;11.696;2022-11-12T16:04:12;7.50;99.90
17968;DHT22;9109;48.050;11.696;2022-11-12T16:07:15;7.40;99.90
17968;DHT22;9109;48.050;11.696;2022-11-12T16:10:18;7.30;99.90
17968;DHT22;9109;48.050;11.696;2022-11-12T16:13:25;7.40;99.90
17968;DHT22;9109;48.050;11.696;2022-11-12T16:16:27;7.50;99.90
17968;DHT22;9109;48.050;11.696;2022-11-12T16:19:29;7.50;99.90
17968;DHT22;9109;48.050;11.696;2022-11-12T16:22:35;7.60;99.90
17968;DHT22;9109;48.050;11.696;2022-11-12T16:25:39;7.50;99.90
17968;DHT22;9109;48.050;11.696;2022-11-12T16:28:41;7.30;99.90
17968;DHT22;9109;48.050;11.696;2022-11-12T16:31:43;7.20;99.90
17968;DHT22;9109;48.050;11.696;2022-11-12T16:34:45;7.20;99.90
17968;DHT22;9109;48.050;11.696;2022-11-12T16:37:48;7.20;99.90
17968;DHT22;9109;48.050;11.696;2022-11-12T16:40:50;7.20;99.90
17968;DHT22;9109;48.050;11.696;2022-11-12T16:43:52;7.20;99.90
17968;DHT22;9109;48.050;11.696;2022-11-12T16:46:54;7.20;99.90
17968;DHT22;9109;48.050;11.696;2022-11-12T16:49:56;7.10;99.90
17968;DHT22;9109;48.050;11.696;2022-11-12T16:52:59;7.10;99.90
17968;DHT22;9109;48.050;11.696;2022-11-12T16:56:01;7.10;99.90
17968;DHT22;9109;48.050;11.696;2022-11-12T16:59:04;7.10;99.90
17968;DHT22;9109;48.050;11.696;2022-11-12T17:02:11;7.20;99.90
17968;DHT22;9109;48.050;11.696;2022-11-12T17:05:18;7.30;99.90
17968;DHT22;9109;48.050;11.696;2022-11-12T17:08:21;7.40;99.90
17968;DHT22;9109;48.050;11.696;2022-11-12T17:11:23;7.50;99.90
17968;DHT22;9109;48.050;11.696;2022-11-12T17:14:25;7.60;99.90
17968;DHT22;9109;48.050;11.696;2022-11-12T17:17:27;7.60;99.90
17968;DHT22;9109;48.050;11.696;2022-11-12T17:20:29;7.60;99.90
17968;DHT22;9109;48.050;11.696;2022-11-12T17:23:32;7.60;99.90
17968;DHT22;9109;48.050;11.696;2022-11-12T17:26:34;7.60;99.90
17968;DHT22;9109;48.050;11.696;2022-11-12T17:29:37;7.60;99.90
17968;DHT22;9109;48.050;11.696;2022-11-12T17:32:39;7.50;99.90
17968;DHT22;9109;48.050;11.696;2022-11-12T17:35:41;7.60;99.90
17968;DHT22;9109;48.050;11.696;2022-11-12T17:38:44;7.50;99.90
17968;DHT22;9109;48.050;11.696;2022-11-12T17:41:46;7.50;99.90
17968;DHT22;9109;48.050;11.696;2022-11-12T17:44:48;7.40;99.90
17968;DHT22;9109;48.050;11.696;2022-11-12T17:47:50;7.50;99.90
17968;DHT22;9109;48.050;11.696;2022-11-12T17:51:04;7.50;99.90
17968;DHT22;9109;48.050;11.696;2022-11-12T17:54:07;7.50;99.90
17968;DHT22;9109;48.050;11.696;2022-11-12T17:57:09;7.50;99.90
17968;DHT22;9109;48.050;11.696;2022-11-12T18:00:12;7.50;99.90
17968;DHT22;9109;48.050;11.696;2022-11-12T18:03:15;7.50;99.90
17968;DHT22;9109;48.050;11.696;2022-11-12T18:06:18;7.50;99.90
17968;DHT22;9109;48.050;11.696;2022-11-12T18:09:22;7.50;99.90
17968;DHT22;9109;48.050;11.696;2022-11-12T18:12:24;7.50;99.90
17968;DHT22;9109;48.050;11.696;2022-11-12T18:15:26;7.50;99.90
17968;DHT22;9109;48.050;11.696;2022-11-12T18:18:28;7.50;99.90
17968;DHT22;9109;48.050;11.696;2022-11-12T18:21:30;7.50;99.90
17968;DHT22;9109;48.050;11.696;2022-11-12T18:24:33;7.40;99.90
17968;DHT22;9109;48.050;11.696;2022-11-12T18:27:35;7.30;99.90
17968;DHT22;9109;48.050;11.696;2022-11-12T18:30:38;7.40;99.90
17968;DHT22;9109;48.050;11.696;2022-11-12T18:33:39;7.40;99.90
17968;DHT22;9109;48.050;11.696;2022-11-12T18:36:41;7.40;99.90
17968;DHT22;9109;48.050;11.696;2022-11-12T18:39:45;7.40;99.90
17968;DHT22;9109;48.050;11.696;2022-11-12T18:42:47;7.30;99.90
17968;DHT22;9109;48.050;11.696;2022-11-12T18:45:53;7.20;99.90
17968;DHT22;9109;48.050;11.696;2022-11-12T18:48:55;7.20;99.90
17968;DHT22;9109;48.050;11.696;2022-11-12T18:51:56;7.30;99.90
17968;DHT22;9109;48.050;11.696;2022-11-12T18:55:00;7.30;99.90
17968;DHT22;9109;48.050;11.696;2022-11-12T18:58:02;7.30;99.90
17968;DHT22;9109;48.050;11.696;2022-11-12T19:01:05;7.20;99.90
17968;DHT22;9109;48.050;11.696;2022-11-12T19:04:09;7.20;99.90
17968;DHT22;9109;48.050;11.696;2022-11-12T19:07:11;7.20;99.90
17968;DHT22;9109;48.050;11.696;2022-11-12T19:10:15;7.10;99.90
17968;DHT22;9109;48.050;11.696;2022-11-12T19:13:17;7.00;99.90
17968;DHT22;9109;48.050;11.696;2022-11-12T19:16:20;7.00;99.90
17968;DHT22;9109;48.050;11.696;2022-11-12T19:19:23;7.00;99.90
17968;DHT22;9109;48.050;11.696;2022-11-12T19:22:24;7.00;99.90
17968;DHT22;9109;48.050;11.696;2022-11-12T19:25:28;6.90;99.90
17968;DHT22;9109;48.050;11.696;2022-11-12T19:28:30;7.00;99.90
17968;DHT22;9109;48.050;11.696;2022-11-12T19:31:32;7.00;99.90
17968;DHT22;9109;48.050;11.696;2022-11-12T19:34:34;7.00;99.90
17968;DHT22;9109;48.050;11.696;2022-11-12T19:37:36;7.00;99.90
17968;DHT22;9109;48.050;11.696;2022-11-12T19:40:39;7.00;99.90
17968;DHT22;9109;48.050;11.696;2022-11-12T19:43:41;7.00;99.90
17968;DHT22;9109;48.050;11.696;2022-11-12T19:46:43;7.00;99.90
17968;DHT22;9109;48.050;11.696;2022-11-12T19:49:45;6.90;99.90
17968;DHT22;9109;48.050;11.696;2022-11-12T19:52:47;6.80;99.90
17968;DHT22;9109;48.050;11.696;2022-11-12T19:55:50;7.00;99.90
17968;DHT22;9109;48.050;11.696;2022-11-12T19:58:52;7.00;99.90
17968;DHT22;9109;48.050;11.696;2022-11-12T20:01:54;6.90;99.90
17968;DHT22;9109;48.050;11.696;2022-11-12T20:04:56;6.80;99.90
17968;DHT22;9109;48.050;11.696;2022-11-12T20:07:58;6.70;99.90
17968;DHT22;9109;48.050;11.696;2022-11-12T20:11:02;6.50;99.90
17968;DHT22;9109;48.050;11.696;2022-11-12T20:14:04;6.50;99.90
17968;DHT22;9109;48.050;11.696;2022-11-12T20:17:06;6.70;99.90
17968;DHT22;9109;48.050;11.696;2022-11-12T20:20:08;6.70;99.90
17968;DHT22;9109;48.050;11.696;2022-11-12T20:23:10;6.80;99.90
17968;DHT22;9109;48.050;11.696;2022-11-12T20:26:14;6.80;99.90
17968;DHT22;9109;48.050;11.696;2022-11-12T20:29:16;6.80;99.90
17968;DHT22;9109;48.050;11.696;2022-11-12T20:32:19;6.70;99.90
17968;DHT22;9109;48.050;11.696;2022-11-12T20:35:21;6.50;99.90
17968;DHT22;9109;48.050;11.696;2022-11-12T20:38:23;6.50;99.90
17968;DHT22;9109;48.050;11.696;2022-11-12T20:41:26;6.50;99.90
17968;DHT22;9109;48.050;11.696;2022-11-12T20:44:29;6.50;99.90
17968;DHT22;9109;48.050;11.696;2022-11-12T20:47:30;6.50;99.90
17968;DHT22;9109;48.050;11.696;2022-11-12T20:50:32;6.50;99.90
17968;DHT22;9109;48.050;11.696;2022-11-12T20:53:36;6.40;99.90
17968;DHT22;9109;48.050;11.696;2022-11-12T20:56:39;6.40;99.90
17968;DHT22;9109;48.050;11.696;2022-11-12T20:59:42;6.40;99.90
17968;DHT22;9109;48.050;11.696;2022-11-12T21:02:43;6.40;99.90
17968;DHT22;9109;48.050;11.696;2022-11-12T21:05:45;6.40;99.90
17968;DHT22;9109;48.050;11.696;2022-11-12T21:08:47;6.40;99.90
17968;DHT22;9109;48.050;11.696;2022-11-12T21:11:51;6.40;99.90
17968;DHT22;9109;48.050;11.696;2022-11-12T21:14:52;6.30;99.90
17968;DHT22;9109;48.050;11.696;2022-11-12T21:17:54;6.30;99.90
17968;DHT22;9109;48.050;11.696;2022-11-12T21:21:01;6.20;99.90
17968;DHT22;9109;48.050;11.696;2022-11-12T21:24:03;6.20;99.90
17968;DHT22;9109;48.050;11.696;2022-11-12T21:27:07;6.30;99.90
17968;DHT22;9109;48.050;11.696;2022-11-12T21:30:11;6.30;99.90
17968;DHT22;9109;48.050;11.696;2022-11-12T21:33:13;6.50;99.90
17968;DHT22;9109;48.050;11.696;2022-11-12T21:36:14;6.40;99.90
17968;DHT22;9109;48.050;11.696;2022-11-12T21:39:16;6.20;99.90
17968;DHT22;9109;48.050;11.696;2022-11-12T21:42:20;6.20;99.90
17968;DHT22;9109;48.050;11.696;2022-11-12T21:45:22;6.20;99.90
17968;DHT22;9109;48.050;11.696;2022-11-12T21:48:23;6.10;99.90
17968;DHT22;9109;48.050;11.696;2022-11-12T21:51:28;5.90;99.90
17968;DHT22;9109;48.050;11.696;2022-11-12T21:54:30;6.00;99.90
17968;DHT22;9109;48.050;11.696;2022-11-12T21:57:33;6.00;99.90
17968;DHT22;9109;48.050;11.696;2022-11-12T22:03:51;6.10;99.90
17968;DHT22;9109;48.050;11.696;2022-11-12T22:07:10;6.00;99.90
17968;DHT22;9109;48.050;11.696;2022-11-12T22:10:23;6.00;99.90
17968;DHT22;9109;48.050;11.696;2022-11-12T22:13:26;5.90;99.90
17968;DHT22;9109;48.050;11.696;2022-11-12T22:16:28;5.60;99.90
17968;DHT22;9109;48.050;11.696;2022-11-12T22:19:30;5.50;99.90
17968;DHT22;9109;48.050;11.696;2022-11-12T22:22:33;5.60;99.90
17968;DHT22;9109;48.050;11.696;2022-11-12T22:25:35;5.60;99.90
17968;DHT22;9109;48.050;11.696;2022-11-12T22:28:39;5.30;99.90
17968;DHT22;9109;48.050;11.696;2022-11-12T22:31:41;5.30;99.90
17968;DHT22;9109;48.050;11.696;2022-11-12T22:34:43;5.50;99.90
17968;DHT22;9109;48.050;11.696;2022-11-12T22:37:45;5.60;99.90
17968;DHT22;9109;48.050;11.696;2022-11-12T22:40:47;5.60;99.90
17968;DHT22;9109;48.050;11.696;2022-11-12T22:44:14;5.60;99.90
17968;DHT22;9109;48.050;11.696;2022-11-12T22:47:20;5.60;99.90
17968;DHT22;9109;48.050;11.696;2022-11-12T22:50:56;5.70;99.90
17968;DHT22;9109;48.050;11.696;2022-11-12T22:54:06;5.80;99.90
17968;DHT22;9109;48.050;11.696;2022-11-12T22:57:21;5.80;99.90
17968;DHT22;9109;48.050;11.696;2022-11-12T23:00:49;5.90;99.90
17968;DHT22;9109;48.050;11.696;2022-11-12T23:04:07;5.80;99.90
17968;DHT22;9109;48.050;11.696;2022-11-12T23:07:40;5.80;99.90
17968;DHT22;9109;48.050;11.696;2022-11-12T23:10:42;5.70;99.90
17968;DHT22;9109;48.050;11.696;2022-11-12T23:13:53;5.60;99.90
17968;DHT22;9109;48.050;11.696;2022-11-12T23:17:01;5.60;99.90
17968;DHT22;9109;48.050;11.696;2022-11-12T23:20:27;5.50;99.90
17968;DHT22;9109;48.050;11.696;2022-11-12T23:23:39;5.60;99.90
17968;DHT22;9109;48.050;11.696;2022-11-12T23:27:10;5.60;99.90
17968;DHT22;9109;48.050;11.696;2022-11-12T23:30:12;5.50;99.90
17968;DHT22;9109;48.050;11.696;2022-11-12T23:33:44;5.50;99.90
17968;DHT22;9109;48.050;11.696;2022-11-12T23:36:55;5.40;99.90
17968;DHT22;9109;48.050;11.696;2022-11-12T23:40:17;5.30;99.90
17968;DHT22;9109;48.050;11.696;2022-11-12T23:43:39;5.20;99.90
17968;DHT22;9109;48.050;11.696;2022-11-12T23:46:53;5.20;99.90
17968;DHT22;9109;48.050;11.696;2022-11-12T23:49:56;5.20;99.90
17968;DHT22;9109;48.050;11.696;2022-11-12T23:52:58;5.30;99.90
17968;DHT22;9109;48.050;11.696;2022-11-12T23:56:00;5.30;99.90
17968;DHT22;9109;48.050;11.696;2022-11-12T23:59:02;5.40;99.90
